sensor_id;sensor_type;location;lat;lon;timestamp;P1;durP1;ratioP1;P2;durP2;ratioP2
32786;SDS011;19139;49.372;8.580;2022-12-29T00:01:40;3.60;;;2.50;;
32786;SDS011;19139;49.372;8.580;2022-12-29T00:04:07;3.40;;;3.00;;
32786;SDS011;19139;49.372;8.580;2022-12-29T00:06:41;2.97;;;2.40;;
32786;SDS011;19139;49.372;8.580;2022-12-29T00:09:08;2.97;;;2.63;;
32786;SDS011;19139;49.372;8.580;2022-12-29T00:11:37;3.43;;;2.90;;
32786;SDS011;19139;49.372;8.580;2022-12-29T00:14:04;4.63;;;2.47;;
32786;SDS011;19139;49.372;8.580;2022-12-29T00:16:51;3.53;;;2.43;;
32786;SDS011;19139;49.372;8.580;2022-12-29T00:19:18;3.03;;;2.33;;
32786;SDS011;19139;49.372;8.580;2022-12-29T00:22:03;2.57;;;2.10;;
32786;SDS011;19139;49.372;8.580;2022-12-29T00:24:48;3.73;;;2.70;;
32786;SDS011;19139;49.372;8.580;2022-12-29T00:27:28;3.10;;;2.30;;
32786;SDS011;19139;49.372;8.580;2022-12-29T00:30:17;3.57;;;2.60;;
32786;SDS011;19139;49.372;8.580;2022-12-29T00:33:10;3.20;;;2.77;;
32786;SDS011;19139;49.372;8.580;2022-12-29T00:35:57;2.77;;;2.27;;
32786;SDS011;19139;49.372;8.580;2022-12-29T00:38:26;4.00;;;2.90;;
32786;SDS011;19139;49.372;8.580;2022-12-29T00:41:12;2.63;;;2.20;;
32786;SDS011;19139;49.372;8.580;2022-12-29T00:43:57;2.77;;;2.57;;
32786;SDS011;19139;49.372;8.580;2022-12-29T00:46:36;2.90;;;2.60;;
32786;SDS011;19139;49.372;8.580;2022-12-29T00:49:05;2.83;;;2.53;;
32786;SDS011;19139;49.372;8.580;2022-12-29T00:51:51;2.70;;;2.43;;
32786;SDS011;19139;49.372;8.580;2022-12-29T00:54:19;2.90;;;2.53;;
32786;SDS011;19139;49.372;8.580;2022-12-29T00:56:46;4.67;;;3.00;;
32786;SDS011;19139;49.372;8.580;2022-12-29T00:59:14;3.93;;;2.60;;
32786;SDS011;19139;49.372;8.580;2022-12-29T01:01:43;3.47;;;2.27;;
32786;SDS011;19139;49.372;8.580;2022-12-29T01:04:10;3.30;;;2.40;;
32786;SDS011;19139;49.372;8.580;2022-12-29T01:06:38;3.10;;;2.43;;
32786;SDS011;19139;49.372;8.580;2022-12-29T01:09:06;2.40;;;2.20;;
32786;SDS011;19139;49.372;8.580;2022-12-29T01:11:52;3.53;;;2.40;;
32786;SDS011;19139;49.372;8.580;2022-12-29T01:14:19;2.83;;;2.27;;
32786;SDS011;19139;49.372;8.580;2022-12-29T01:16:46;5.17;;;2.37;;
32786;SDS011;19139;49.372;8.580;2022-12-29T01:19:13;2.80;;;2.20;;
32786;SDS011;19139;49.372;8.580;2022-12-29T01:21:40;2.87;;;2.60;;
32786;SDS011;19139;49.372;8.580;2022-12-29T01:24:07;2.20;;;2.00;;
32786;SDS011;19139;49.372;8.580;2022-12-29T01:26:34;2.67;;;2.23;;
32786;SDS011;19139;49.372;8.580;2022-12-29T01:29:00;2.53;;;2.17;;
32786;SDS011;19139;49.372;8.580;2022-12-29T01:31:27;4.23;;;2.43;;
32786;SDS011;19139;49.372;8.580;2022-12-29T01:33:53;2.43;;;2.23;;
32786;SDS011;19139;49.372;8.580;2022-12-29T01:36:20;2.93;;;2.30;;
32786;SDS011;19139;49.372;8.580;2022-12-29T01:38:47;3.10;;;2.67;;
32786;SDS011;19139;49.372;8.580;2022-12-29T01:41:14;4.17;;;2.63;;
32786;SDS011;19139;49.372;8.580;2022-12-29T01:43:47;3.20;;;2.30;;
32786;SDS011;19139;49.372;8.580;2022-12-29T01:46:23;2.60;;;2.37;;
32786;SDS011;19139;49.372;8.580;2022-12-29T01:49:12;2.80;;;2.60;;
32786;SDS011;19139;49.372;8.580;2022-12-29T01:51:51;3.73;;;2.30;;
32786;SDS011;19139;49.372;8.580;2022-12-29T01:54:33;2.30;;;2.00;;
32786;SDS011;19139;49.372;8.580;2022-12-29T01:57:05;3.03;;;2.73;;
32786;SDS011;19139;49.372;8.580;2022-12-29T01:59:37;2.50;;;2.30;;
32786;SDS011;19139;49.372;8.580;2022-12-29T02:02:07;2.40;;;2.03;;
32786;SDS011;19139;49.372;8.580;2022-12-29T02:04:34;2.50;;;2.00;;
32786;SDS011;19139;49.372;8.580;2022-12-29T02:07:08;2.80;;;2.00;;
32786;SDS011;19139;49.372;8.580;2022-12-29T02:09:39;2.40;;;2.13;;
32786;SDS011;19139;49.372;8.580;2022-12-29T02:12:07;3.00;;;2.70;;
32786;SDS011;19139;49.372;8.580;2022-12-29T02:14:33;2.37;;;2.00;;
32786;SDS011;19139;49.372;8.580;2022-12-29T02:19:46;4.37;;;2.23;;
32786;SDS011;19139;49.372;8.580;2022-12-29T02:22:42;2.40;;;2.10;;
32786;SDS011;19139;49.372;8.580;2022-12-29T02:25:30;2.60;;;2.00;;
32786;SDS011;19139;49.372;8.580;2022-12-29T02:36:07;2.17;;;1.67;;
32786;SDS011;19139;49.372;8.580;2022-12-29T02:39:02;2.13;;;1.90;;
32786;SDS011;19139;49.372;8.580;2022-12-29T02:47:04;2.27;;;1.90;;
32786;SDS011;19139;49.372;8.580;2022-12-29T02:49:46;2.23;;;1.77;;
32786;SDS011;19139;49.372;8.580;2022-12-29T02:52:25;2.23;;;1.50;;
32786;SDS011;19139;49.372;8.580;2022-12-29T02:54:58;1.57;;;1.47;;
32786;SDS011;19139;49.372;8.580;2022-12-29T02:59:54;2.50;;;1.93;;
32786;SDS011;19139;49.372;8.580;2022-12-29T03:08:05;2.00;;;1.50;;
32786;SDS011;19139;49.372;8.580;2022-12-29T03:19:16;1.80;;;1.70;;
32786;SDS011;19139;49.372;8.580;2022-12-29T03:21:55;2.07;;;1.40;;
32786;SDS011;19139;49.372;8.580;2022-12-29T03:24:44;2.20;;;1.70;;
32786;SDS011;19139;49.372;8.580;2022-12-29T03:27:15;1.93;;;1.63;;
32786;SDS011;19139;49.372;8.580;2022-12-29T03:29:46;2.23;;;1.77;;
32786;SDS011;19139;49.372;8.580;2022-12-29T03:32:20;2.00;;;1.80;;
32786;SDS011;19139;49.372;8.580;2022-12-29T03:34:49;2.37;;;2.07;;
32786;SDS011;19139;49.372;8.580;2022-12-29T03:37:18;1.87;;;1.70;;
32786;SDS011;19139;49.372;8.580;2022-12-29T03:39:49;1.77;;;1.50;;
32786;SDS011;19139;49.372;8.580;2022-12-29T03:42:17;1.70;;;1.47;;
32786;SDS011;19139;49.372;8.580;2022-12-29T03:44:46;1.47;;;1.33;;
32786;SDS011;19139;49.372;8.580;2022-12-29T03:47:14;1.50;;;1.40;;
32786;SDS011;19139;49.372;8.580;2022-12-29T03:49:41;2.50;;;1.80;;
32786;SDS011;19139;49.372;8.580;2022-12-29T03:52:07;2.77;;;1.77;;
32786;SDS011;19139;49.372;8.580;2022-12-29T03:54:34;1.70;;;1.60;;
32786;SDS011;19139;49.372;8.580;2022-12-29T03:57:01;2.00;;;1.60;;
32786;SDS011;19139;49.372;8.580;2022-12-29T03:59:27;2.10;;;1.40;;
32786;SDS011;19139;49.372;8.580;2022-12-29T04:01:54;1.73;;;1.50;;
32786;SDS011;19139;49.372;8.580;2022-12-29T04:04:21;2.00;;;1.80;;
32786;SDS011;19139;49.372;8.580;2022-12-29T04:06:47;2.00;;;1.80;;
32786;SDS011;19139;49.372;8.580;2022-12-29T04:09:14;1.93;;;1.70;;
32786;SDS011;19139;49.372;8.580;2022-12-29T04:11:42;2.20;;;1.50;;
32786;SDS011;19139;49.372;8.580;2022-12-29T04:14:09;1.73;;;1.37;;
32786;SDS011;19139;49.372;8.580;2022-12-29T04:16:35;2.57;;;1.90;;
32786;SDS011;19139;49.372;8.580;2022-12-29T04:19:05;2.10;;;1.70;;
32786;SDS011;19139;49.372;8.580;2022-12-29T04:21:33;1.70;;;1.60;;
32786;SDS011;19139;49.372;8.580;2022-12-29T04:24:00;1.67;;;1.37;;
32786;SDS011;19139;49.372;8.580;2022-12-29T04:26:26;2.13;;;1.90;;
32786;SDS011;19139;49.372;8.580;2022-12-29T04:28:53;1.97;;;1.63;;
32786;SDS011;19139;49.372;8.580;2022-12-29T04:31:19;1.73;;;1.50;;
32786;SDS011;19139;49.372;8.580;2022-12-29T04:33:46;2.50;;;1.50;;
32786;SDS011;19139;49.372;8.580;2022-12-29T04:36:13;1.77;;;1.40;;
32786;SDS011;19139;49.372;8.580;2022-12-29T04:38:39;2.47;;;1.97;;
32786;SDS011;19139;49.372;8.580;2022-12-29T04:41:06;1.73;;;1.53;;
32786;SDS011;19139;49.372;8.580;2022-12-29T04:43:33;1.97;;;1.50;;
32786;SDS011;19139;49.372;8.580;2022-12-29T04:45:59;2.80;;;2.07;;
32786;SDS011;19139;49.372;8.580;2022-12-29T04:48:26;3.20;;;1.50;;
32786;SDS011;19139;49.372;8.580;2022-12-29T04:50:52;1.90;;;1.80;;
32786;SDS011;19139;49.372;8.580;2022-12-29T04:53:19;1.30;;;1.20;;
32786;SDS011;19139;49.372;8.580;2022-12-29T04:55:52;2.03;;;1.63;;
32786;SDS011;19139;49.372;8.580;2022-12-29T04:58:19;2.10;;;1.60;;
32786;SDS011;19139;49.372;8.580;2022-12-29T05:00:48;1.60;;;1.50;;
32786;SDS011;19139;49.372;8.580;2022-12-29T05:03:15;2.00;;;1.13;;
32786;SDS011;19139;49.372;8.580;2022-12-29T05:05:43;2.00;;;1.63;;
32786;SDS011;19139;49.372;8.580;2022-12-29T05:08:10;1.73;;;1.63;;
32786;SDS011;19139;49.372;8.580;2022-12-29T05:10:36;1.80;;;1.53;;
32786;SDS011;19139;49.372;8.580;2022-12-29T05:13:03;1.63;;;1.30;;
32786;SDS011;19139;49.372;8.580;2022-12-29T05:15:29;2.93;;;1.77;;
32786;SDS011;19139;49.372;8.580;2022-12-29T05:17:56;2.13;;;1.33;;
32786;SDS011;19139;49.372;8.580;2022-12-29T05:20:23;1.40;;;1.30;;
32786;SDS011;19139;49.372;8.580;2022-12-29T05:22:49;2.13;;;1.37;;
32786;SDS011;19139;49.372;8.580;2022-12-29T05:25:16;1.67;;;1.33;;
32786;SDS011;19139;49.372;8.580;2022-12-29T05:27:42;1.43;;;1.30;;
32786;SDS011;19139;49.372;8.580;2022-12-29T05:30:09;1.83;;;1.30;;
32786;SDS011;19139;49.372;8.580;2022-12-29T05:32:36;2.00;;;1.80;;
32786;SDS011;19139;49.372;8.580;2022-12-29T05:35:03;1.53;;;1.43;;
32786;SDS011;19139;49.372;8.580;2022-12-29T05:37:30;1.60;;;1.50;;
32786;SDS011;19139;49.372;8.580;2022-12-29T05:39:57;1.93;;;1.53;;
32786;SDS011;19139;49.372;8.580;2022-12-29T05:42:25;1.50;;;1.40;;
32786;SDS011;19139;49.372;8.580;2022-12-29T05:44:51;1.50;;;1.33;;
32786;SDS011;19139;49.372;8.580;2022-12-29T05:47:20;2.30;;;1.70;;
32786;SDS011;19139;49.372;8.580;2022-12-29T05:49:46;1.67;;;1.57;;
32786;SDS011;19139;49.372;8.580;2022-12-29T05:52:13;1.50;;;1.40;;
32786;SDS011;19139;49.372;8.580;2022-12-29T05:54:39;1.87;;;1.30;;
32786;SDS011;19139;49.372;8.580;2022-12-29T05:57:06;2.10;;;1.40;;
32786;SDS011;19139;49.372;8.580;2022-12-29T05:59:33;1.60;;;1.50;;
32786;SDS011;19139;49.372;8.580;2022-12-29T06:01:59;1.80;;;1.57;;
32786;SDS011;19139;49.372;8.580;2022-12-29T06:04:26;2.07;;;1.63;;
32786;SDS011;19139;49.372;8.580;2022-12-29T06:06:53;1.93;;;1.60;;
32786;SDS011;19139;49.372;8.580;2022-12-29T06:09:19;1.63;;;1.50;;
32786;SDS011;19139;49.372;8.580;2022-12-29T06:11:46;2.63;;;1.40;;
32786;SDS011;19139;49.372;8.580;2022-12-29T06:14:12;1.70;;;1.50;;
32786;SDS011;19139;49.372;8.580;2022-12-29T06:16:39;1.50;;;1.40;;
32786;SDS011;19139;49.372;8.580;2022-12-29T06:19:06;1.60;;;1.40;;
32786;SDS011;19139;49.372;8.580;2022-12-29T06:21:32;1.40;;;1.23;;
32786;SDS011;19139;49.372;8.580;2022-12-29T06:23:59;1.97;;;1.30;;
32786;SDS011;19139;49.372;8.580;2022-12-29T06:26:25;2.17;;;1.60;;
32786;SDS011;19139;49.372;8.580;2022-12-29T06:28:52;1.70;;;1.50;;
32786;SDS011;19139;49.372;8.580;2022-12-29T06:31:18;1.70;;;1.30;;
32786;SDS011;19139;49.372;8.580;2022-12-29T06:33:45;1.67;;;1.43;;
32786;SDS011;19139;49.372;8.580;2022-12-29T06:36:15;2.03;;;1.40;;
32786;SDS011;19139;49.372;8.580;2022-12-29T06:38:42;1.43;;;1.17;;
32786;SDS011;19139;49.372;8.580;2022-12-29T06:41:09;1.47;;;1.23;;
32786;SDS011;19139;49.372;8.580;2022-12-29T06:43:36;1.33;;;1.17;;
32786;SDS011;19139;49.372;8.580;2022-12-29T06:46:04;1.30;;;1.13;;
32786;SDS011;19139;49.372;8.580;2022-12-29T06:48:31;1.40;;;1.30;;
32786;SDS011;19139;49.372;8.580;2022-12-29T06:50:58;1.50;;;1.30;;
32786;SDS011;19139;49.372;8.580;2022-12-29T06:53:24;1.97;;;1.40;;
32786;SDS011;19139;49.372;8.580;2022-12-29T06:55:51;2.07;;;1.63;;
32786;SDS011;19139;49.372;8.580;2022-12-29T06:58:17;1.47;;;1.30;;
32786;SDS011;19139;49.372;8.580;2022-12-29T07:00:44;1.50;;;1.40;;
32786;SDS011;19139;49.372;8.580;2022-12-29T07:03:11;1.90;;;1.50;;
32786;SDS011;19139;49.372;8.580;2022-12-29T07:05:37;1.40;;;1.30;;
32786;SDS011;19139;49.372;8.580;2022-12-29T07:08:04;1.30;;;1.10;;
32786;SDS011;19139;49.372;8.580;2022-12-29T07:10:32;1.70;;;1.37;;
32786;SDS011;19139;49.372;8.580;2022-12-29T07:12:58;1.60;;;1.30;;
32786;SDS011;19139;49.372;8.580;2022-12-29T07:15:25;1.63;;;1.23;;
32786;SDS011;19139;49.372;8.580;2022-12-29T07:17:52;1.63;;;1.40;;
32786;SDS011;19139;49.372;8.580;2022-12-29T07:20:18;1.80;;;1.40;;
32786;SDS011;19139;49.372;8.580;2022-12-29T07:22:52;1.53;;;1.03;;
32786;SDS011;19139;49.372;8.580;2022-12-29T07:25:18;1.40;;;1.30;;
32786;SDS011;19139;49.372;8.580;2022-12-29T07:27:45;1.40;;;1.10;;
32786;SDS011;19139;49.372;8.580;2022-12-29T07:30:11;1.50;;;1.40;;
32786;SDS011;19139;49.372;8.580;2022-12-29T07:32:38;1.40;;;1.30;;
32786;SDS011;19139;49.372;8.580;2022-12-29T07:35:05;1.30;;;1.20;;
32786;SDS011;19139;49.372;8.580;2022-12-29T07:37:32;1.67;;;1.10;;
32786;SDS011;19139;49.372;8.580;2022-12-29T07:40:00;1.67;;;1.40;;
32786;SDS011;19139;49.372;8.580;2022-12-29T07:42:29;1.73;;;1.00;;
32786;SDS011;19139;49.372;8.580;2022-12-29T07:44:57;1.20;;;1.10;;
32786;SDS011;19139;49.372;8.580;2022-12-29T07:47:23;1.80;;;1.20;;
32786;SDS011;19139;49.372;8.580;2022-12-29T07:49:50;1.40;;;1.20;;
32786;SDS011;19139;49.372;8.580;2022-12-29T07:52:16;1.50;;;1.40;;
32786;SDS011;19139;49.372;8.580;2022-12-29T07:54:43;3.00;;;1.90;;
32786;SDS011;19139;49.372;8.580;2022-12-29T07:57:10;1.50;;;1.27;;
32786;SDS011;19139;49.372;8.580;2022-12-29T07:59:36;1.50;;;1.10;;
32786;SDS011;19139;49.372;8.580;2022-12-29T08:02:03;1.87;;;1.40;;
32786;SDS011;19139;49.372;8.580;2022-12-29T08:04:30;1.50;;;1.20;;
32786;SDS011;19139;49.372;8.580;2022-12-29T08:06:56;1.40;;;1.20;;
32786;SDS011;19139;49.372;8.580;2022-12-29T08:09:23;1.40;;;1.30;;
32786;SDS011;19139;49.372;8.580;2022-12-29T08:11:50;1.80;;;1.20;;
32786;SDS011;19139;49.372;8.580;2022-12-29T08:14:17;1.67;;;1.43;;
32786;SDS011;19139;49.372;8.580;2022-12-29T08:16:44;1.77;;;1.30;;
32786;SDS011;19139;49.372;8.580;2022-12-29T08:19:11;2.03;;;1.40;;
32786;SDS011;19139;49.372;8.580;2022-12-29T08:21:38;2.03;;;1.17;;
32786;SDS011;19139;49.372;8.580;2022-12-29T08:24:06;1.27;;;1.00;;
32786;SDS011;19139;49.372;8.580;2022-12-29T08:26:33;1.27;;;1.00;;
32786;SDS011;19139;49.372;8.580;2022-12-29T08:29:00;1.33;;;1.03;;
32786;SDS011;19139;49.372;8.580;2022-12-29T08:31:27;1.23;;;1.13;;
32786;SDS011;19139;49.372;8.580;2022-12-29T08:33:54;1.40;;;1.20;;
32786;SDS011;19139;49.372;8.580;2022-12-29T08:36:20;1.20;;;1.10;;
32786;SDS011;19139;49.372;8.580;2022-12-29T08:38:47;1.67;;;1.43;;
32786;SDS011;19139;49.372;8.580;2022-12-29T08:41:14;2.47;;;1.20;;
32786;SDS011;19139;49.372;8.580;2022-12-29T08:43:40;1.47;;;1.20;;
32786;SDS011;19139;49.372;8.580;2022-12-29T08:46:07;1.97;;;1.10;;
32786;SDS011;19139;49.372;8.580;2022-12-29T08:48:34;1.73;;;1.20;;
32786;SDS011;19139;49.372;8.580;2022-12-29T08:51:00;2.27;;;1.60;;
32786;SDS011;19139;49.372;8.580;2022-12-29T08:53:27;1.50;;;1.40;;
32786;SDS011;19139;49.372;8.580;2022-12-29T08:55:57;1.90;;;1.10;;
32786;SDS011;19139;49.372;8.580;2022-12-29T08:58:30;1.60;;;1.20;;
32786;SDS011;19139;49.372;8.580;2022-12-29T09:00:58;1.67;;;1.00;;
32786;SDS011;19139;49.372;8.580;2022-12-29T09:03:25;1.50;;;1.30;;
32786;SDS011;19139;49.372;8.580;2022-12-29T09:06:12;1.27;;;1.10;;
32786;SDS011;19139;49.372;8.580;2022-12-29T09:08:39;1.97;;;1.27;;
32786;SDS011;19139;49.372;8.580;2022-12-29T09:11:19;1.73;;;1.13;;
32786;SDS011;19139;49.372;8.580;2022-12-29T09:13:48;1.17;;;0.90;;
32786;SDS011;19139;49.372;8.580;2022-12-29T09:16:14;1.20;;;1.10;;
32786;SDS011;19139;49.372;8.580;2022-12-29T09:18:42;1.30;;;1.20;;
32786;SDS011;19139;49.372;8.580;2022-12-29T09:21:10;1.27;;;1.10;;
32786;SDS011;19139;49.372;8.580;2022-12-29T09:23:37;1.30;;;1.00;;
32786;SDS011;19139;49.372;8.580;2022-12-29T09:26:04;1.50;;;1.33;;
32786;SDS011;19139;49.372;8.580;2022-12-29T09:28:31;1.27;;;0.87;;
32786;SDS011;19139;49.372;8.580;2022-12-29T09:30:58;2.30;;;1.40;;
32786;SDS011;19139;49.372;8.580;2022-12-29T09:33:26;1.50;;;1.30;;
32786;SDS011;19139;49.372;8.580;2022-12-29T09:35:54;1.20;;;0.83;;
32786;SDS011;19139;49.372;8.580;2022-12-29T09:38:23;1.63;;;1.33;;
32786;SDS011;19139;49.372;8.580;2022-12-29T09:40:52;1.47;;;1.23;;
32786;SDS011;19139;49.372;8.580;2022-12-29T09:52:05;1.20;;;1.07;;
32786;SDS011;19139;49.372;8.580;2022-12-29T09:54:45;1.27;;;1.00;;
32786;SDS011;19139;49.372;8.580;2022-12-29T10:00:02;1.77;;;1.00;;
32786;SDS011;19139;49.372;8.580;2022-12-29T10:02:34;1.30;;;1.00;;
32786;SDS011;19139;49.372;8.580;2022-12-29T10:05:16;1.67;;;1.10;;
32786;SDS011;19139;49.372;8.580;2022-12-29T10:07:56;1.37;;;0.83;;
32786;SDS011;19139;49.372;8.580;2022-12-29T10:10:48;2.30;;;1.53;;
32786;SDS011;19139;49.372;8.580;2022-12-29T10:13:54;2.07;;;1.10;;
32786;SDS011;19139;49.372;8.580;2022-12-29T10:25:02;1.17;;;0.93;;
32786;SDS011;19139;49.372;8.580;2022-12-29T10:27:37;3.77;;;1.17;;
32786;SDS011;19139;49.372;8.580;2022-12-29T10:30:04;1.10;;;1.00;;
32786;SDS011;19139;49.372;8.580;2022-12-29T10:32:32;1.17;;;1.07;;
32786;SDS011;19139;49.372;8.580;2022-12-29T10:35:13;0.87;;;0.73;;
32786;SDS011;19139;49.372;8.580;2022-12-29T10:40:33;1.10;;;1.00;;
32786;SDS011;19139;49.372;8.580;2022-12-29T10:43:12;1.10;;;1.00;;
32786;SDS011;19139;49.372;8.580;2022-12-29T10:45:57;1.17;;;1.07;;
32786;SDS011;19139;49.372;8.580;2022-12-29T10:48:31;1.00;;;0.90;;
32786;SDS011;19139;49.372;8.580;2022-12-29T10:51:00;1.57;;;1.00;;
32786;SDS011;19139;49.372;8.580;2022-12-29T10:53:35;1.70;;;1.10;;
32786;SDS011;19139;49.372;8.580;2022-12-29T10:56:20;1.17;;;0.90;;
32786;SDS011;19139;49.372;8.580;2022-12-29T10:58:54;1.27;;;0.97;;
32786;SDS011;19139;49.372;8.580;2022-12-29T11:01:23;1.73;;;1.23;;
32786;SDS011;19139;49.372;8.580;2022-12-29T11:04:00;1.10;;;1.00;;
32786;SDS011;19139;49.372;8.580;2022-12-29T11:06:31;1.07;;;0.90;;
32786;SDS011;19139;49.372;8.580;2022-12-29T11:09:13;2.30;;;1.10;;
32786;SDS011;19139;49.372;8.580;2022-12-29T11:11:47;1.23;;;0.80;;
32786;SDS011;19139;49.372;8.580;2022-12-29T11:14:16;2.43;;;1.10;;
32786;SDS011;19139;49.372;8.580;2022-12-29T11:16:45;2.07;;;1.17;;
32786;SDS011;19139;49.372;8.580;2022-12-29T11:19:28;1.77;;;1.10;;
32786;SDS011;19139;49.372;8.580;2022-12-29T11:22:39;1.73;;;1.00;;
32786;SDS011;19139;49.372;8.580;2022-12-29T11:25:06;2.03;;;1.40;;
32786;SDS011;19139;49.372;8.580;2022-12-29T11:27:38;4.00;;;1.40;;
32786;SDS011;19139;49.372;8.580;2022-12-29T11:30:12;4.37;;;1.57;;
32786;SDS011;19139;49.372;8.580;2022-12-29T11:32:51;1.37;;;1.20;;
32786;SDS011;19139;49.372;8.580;2022-12-29T11:38:30;2.40;;;1.20;;
32786;SDS011;19139;49.372;8.580;2022-12-29T11:41:06;2.00;;;1.13;;
32786;SDS011;19139;49.372;8.580;2022-12-29T11:43:38;1.60;;;1.00;;
32786;SDS011;19139;49.372;8.580;2022-12-29T11:46:07;1.13;;;0.80;;
32786;SDS011;19139;49.372;8.580;2022-12-29T11:48:45;3.07;;;0.90;;
32786;SDS011;19139;49.372;8.580;2022-12-29T11:51:13;1.53;;;1.10;;
32786;SDS011;19139;49.372;8.580;2022-12-29T11:53:51;1.83;;;0.93;;
32786;SDS011;19139;49.372;8.580;2022-12-29T11:56:31;2.33;;;1.10;;
32786;SDS011;19139;49.372;8.580;2022-12-29T12:01:56;1.77;;;1.00;;
32786;SDS011;19139;49.372;8.580;2022-12-29T12:04:26;1.90;;;0.97;;
32786;SDS011;19139;49.372;8.580;2022-12-29T12:07:12;3.50;;;0.90;;
32786;SDS011;19139;49.372;8.580;2022-12-29T12:09:43;1.33;;;1.00;;
32786;SDS011;19139;49.372;8.580;2022-12-29T12:12:34;1.80;;;1.13;;
32786;SDS011;19139;49.372;8.580;2022-12-29T12:15:22;1.40;;;0.80;;
32786;SDS011;19139;49.372;8.580;2022-12-29T12:20:56;1.47;;;1.10;;
32786;SDS011;19139;49.372;8.580;2022-12-29T12:26:22;1.47;;;0.90;;
32786;SDS011;19139;49.372;8.580;2022-12-29T12:29:04;3.70;;;1.20;;
32786;SDS011;19139;49.372;8.580;2022-12-29T12:31:57;2.13;;;1.27;;
32786;SDS011;19139;49.372;8.580;2022-12-29T12:34:37;1.37;;;1.03;;
32786;SDS011;19139;49.372;8.580;2022-12-29T12:40:16;1.47;;;0.83;;
32786;SDS011;19139;49.372;8.580;2022-12-29T12:43:08;2.00;;;1.00;;
32786;SDS011;19139;49.372;8.580;2022-12-29T12:45:57;1.27;;;0.80;;
32786;SDS011;19139;49.372;8.580;2022-12-29T12:51:20;1.03;;;0.83;;
32786;SDS011;19139;49.372;8.580;2022-12-29T13:02:43;2.53;;;1.00;;
32786;SDS011;19139;49.372;8.580;2022-12-29T13:05:38;1.00;;;0.90;;
32786;SDS011;19139;49.372;8.580;2022-12-29T13:24:34;2.50;;;0.77;;
32786;SDS011;19139;49.372;8.580;2022-12-29T13:32:18;2.77;;;1.10;;
32786;SDS011;19139;49.372;8.580;2022-12-29T13:38:01;6.27;;;3.60;;
32786;SDS011;19139;49.372;8.580;2022-12-29T13:40:36;2.83;;;2.33;;
32786;SDS011;19139;49.372;8.580;2022-12-29T13:43:07;4.10;;;2.43;;
32786;SDS011;19139;49.372;8.580;2022-12-29T13:45:35;3.23;;;2.03;;
32786;SDS011;19139;49.372;8.580;2022-12-29T13:48:03;4.90;;;2.80;;
32786;SDS011;19139;49.372;8.580;2022-12-29T13:50:36;7.27;;;2.67;;
32786;SDS011;19139;49.372;8.580;2022-12-29T14:01:28;5.00;;;3.10;;
32786;SDS011;19139;49.372;8.580;2022-12-29T14:04:00;4.90;;;3.23;;
32786;SDS011;19139;49.372;8.580;2022-12-29T14:06:35;5.43;;;3.27;;
32786;SDS011;19139;49.372;8.580;2022-12-29T14:12:18;5.30;;;3.47;;
32786;SDS011;19139;49.372;8.580;2022-12-29T14:15:22;4.77;;;3.13;;
32786;SDS011;19139;49.372;8.580;2022-12-29T14:18:10;5.80;;;4.10;;
32786;SDS011;19139;49.372;8.580;2022-12-29T14:20:39;5.20;;;2.80;;
32786;SDS011;19139;49.372;8.580;2022-12-29T14:23:25;6.70;;;3.33;;
32786;SDS011;19139;49.372;8.580;2022-12-29T14:29:00;4.97;;;3.60;;
32786;SDS011;19139;49.372;8.580;2022-12-29T14:31:47;4.10;;;2.90;;
32786;SDS011;19139;49.372;8.580;2022-12-29T14:36:42;6.27;;;3.63;;
32786;SDS011;19139;49.372;8.580;2022-12-29T14:39:34;4.93;;;3.60;;
32786;SDS011;19139;49.372;8.580;2022-12-29T14:44:48;6.77;;;3.47;;
32786;SDS011;19139;49.372;8.580;2022-12-29T14:50:07;4.60;;;3.67;;
32786;SDS011;19139;49.372;8.580;2022-12-29T14:55:47;7.43;;;3.73;;
32786;SDS011;19139;49.372;8.580;2022-12-29T14:58:38;8.00;;;4.43;;
32786;SDS011;19139;49.372;8.580;2022-12-29T15:01:18;5.80;;;3.70;;
32786;SDS011;19139;49.372;8.580;2022-12-29T15:07:09;7.70;;;4.13;;
32786;SDS011;19139;49.372;8.580;2022-12-29T15:09:43;5.83;;;3.87;;
32786;SDS011;19139;49.372;8.580;2022-12-29T15:12:37;8.47;;;4.13;;
32786;SDS011;19139;49.372;8.580;2022-12-29T15:15:13;6.57;;;3.63;;
32786;SDS011;19139;49.372;8.580;2022-12-29T15:17:45;4.87;;;3.67;;
32786;SDS011;19139;49.372;8.580;2022-12-29T15:22:54;5.73;;;4.03;;
32786;SDS011;19139;49.372;8.580;2022-12-29T15:25:28;5.87;;;3.87;;
32786;SDS011;19139;49.372;8.580;2022-12-29T15:28:00;5.97;;;3.80;;
32786;SDS011;19139;49.372;8.580;2022-12-29T15:30:28;6.67;;;3.93;;
32786;SDS011;19139;49.372;8.580;2022-12-29T15:32:55;5.80;;;3.90;;
32786;SDS011;19139;49.372;8.580;2022-12-29T15:37:51;6.63;;;3.50;;
32786;SDS011;19139;49.372;8.580;2022-12-29T15:40:25;7.93;;;3.70;;
32786;SDS011;19139;49.372;8.580;2022-12-29T15:45:34;8.50;;;3.87;;
32786;SDS011;19139;49.372;8.580;2022-12-29T15:48:02;6.17;;;4.53;;
32786;SDS011;19139;49.372;8.580;2022-12-29T15:50:30;6.30;;;4.17;;
32786;SDS011;19139;49.372;8.580;2022-12-29T15:52:59;6.93;;;4.43;;
32786;SDS011;19139;49.372;8.580;2022-12-29T15:55:29;10.93;;;4.17;;
32786;SDS011;19139;49.372;8.580;2022-12-29T15:58:02;7.90;;;4.10;;
32786;SDS011;19139;49.372;8.580;2022-12-29T16:00:31;6.53;;;4.43;;
32786;SDS011;19139;49.372;8.580;2022-12-29T16:03:00;7.07;;;4.77;;
32786;SDS011;19139;49.372;8.580;2022-12-29T16:05:33;7.33;;;5.23;;
32786;SDS011;19139;49.372;8.580;2022-12-29T16:08:01;12.70;;;5.17;;
32786;SDS011;19139;49.372;8.580;2022-12-29T16:13:10;11.00;;;7.27;;
32786;SDS011;19139;49.372;8.580;2022-12-29T16:16:09;12.47;;;8.90;;
32786;SDS011;19139;49.372;8.580;2022-12-29T16:18:40;16.57;;;8.57;;
32786;SDS011;19139;49.372;8.580;2022-12-29T16:21:14;20.50;;;9.17;;
32786;SDS011;19139;49.372;8.580;2022-12-29T16:23:51;18.70;;;9.47;;
32786;SDS011;19139;49.372;8.580;2022-12-29T16:26:20;15.73;;;9.20;;
32786;SDS011;19139;49.372;8.580;2022-12-29T16:28:54;21.97;;;11.50;;
32786;SDS011;19139;49.372;8.580;2022-12-29T16:31:24;17.20;;;10.27;;
32786;SDS011;19139;49.372;8.580;2022-12-29T16:34:09;18.30;;;9.50;;
32786;SDS011;19139;49.372;8.580;2022-12-29T16:36:52;20.27;;;10.20;;
32786;SDS011;19139;49.372;8.580;2022-12-29T16:39:31;18.97;;;10.33;;
32786;SDS011;19139;49.372;8.580;2022-12-29T16:47:47;18.97;;;11.20;;
32786;SDS011;19139;49.372;8.580;2022-12-29T16:50:35;16.37;;;11.13;;
32786;SDS011;19139;49.372;8.580;2022-12-29T16:53:04;17.97;;;11.13;;
32786;SDS011;19139;49.372;8.580;2022-12-29T16:55:32;21.83;;;11.97;;
32786;SDS011;19139;49.372;8.580;2022-12-29T16:57:59;19.23;;;11.93;;
32786;SDS011;19139;49.372;8.580;2022-12-29T17:00:26;14.87;;;9.87;;
32786;SDS011;19139;49.372;8.580;2022-12-29T17:02:58;15.00;;;10.17;;
32786;SDS011;19139;49.372;8.580;2022-12-29T17:05:26;17.47;;;10.90;;
32786;SDS011;19139;49.372;8.580;2022-12-29T17:07:53;16.00;;;10.00;;
32786;SDS011;19139;49.372;8.580;2022-12-29T17:10:20;16.00;;;10.87;;
32786;SDS011;19139;49.372;8.580;2022-12-29T17:13:07;17.27;;;11.03;;
32786;SDS011;19139;49.372;8.580;2022-12-29T17:15:34;14.30;;;10.37;;
32786;SDS011;19139;49.372;8.580;2022-12-29T17:18:01;16.50;;;10.97;;
32786;SDS011;19139;49.372;8.580;2022-12-29T17:20:31;16.83;;;9.90;;
32786;SDS011;19139;49.372;8.580;2022-12-29T17:22:58;17.80;;;10.73;;
32786;SDS011;19139;49.372;8.580;2022-12-29T17:28:01;17.07;;;10.63;;
32786;SDS011;19139;49.372;8.580;2022-12-29T17:30:33;19.77;;;10.30;;
32786;SDS011;19139;49.372;8.580;2022-12-29T17:33:02;16.27;;;10.63;;
32786;SDS011;19139;49.372;8.580;2022-12-29T17:35:31;15.43;;;10.23;;
32786;SDS011;19139;49.372;8.580;2022-12-29T17:37:58;14.37;;;10.20;;
32786;SDS011;19139;49.372;8.580;2022-12-29T17:40:28;15.63;;;9.90;;
32786;SDS011;19139;49.372;8.580;2022-12-29T17:42:58;17.13;;;9.93;;
32786;SDS011;19139;49.372;8.580;2022-12-29T17:45:26;15.00;;;9.87;;
32786;SDS011;19139;49.372;8.580;2022-12-29T17:47:55;14.47;;;10.60;;